sensor_id;sensor_type;location;lat;lon;timestamp;temperature;humidity
16402;DHT22;8310;44.626;11.176;2022-10-16T00:01:26;20.60;56.10
16402;DHT22;8310;44.626;11.176;2022-10-16T00:03:55;20.60;56.10
16402;DHT22;8310;44.626;11.176;2022-10-16T00:06:23;20.60;56.00
16402;DHT22;8310;44.626;11.176;2022-10-16T00:08:51;20.60;55.90
16402;DHT22;8310;44.626;11.176;2022-10-16T00:11:22;20.60;55.80
16402;DHT22;8310;44.626;11.176;2022-10-16T00:13:51;20.60;55.80
16402;DHT22;8310;44.626;11.176;2022-10-16T00:16:19;20.50;56.40
16402;DHT22;8310;44.626;11.176;2022-10-16T00:18:47;20.50;55.70
16402;DHT22;8310;44.626;11.176;2022-10-16T00:21:16;20.40;55.70
16402;DHT22;8310;44.626;11.176;2022-10-16T00:23:44;20.40;55.80
16402;DHT22;8310;44.626;11.176;2022-10-16T00:26:15;20.30;55.70
16402;DHT22;8310;44.626;11.176;2022-10-16T00:28:45;20.30;55.80
16402;DHT22;8310;44.626;11.176;2022-10-16T00:31:13;20.20;55.70
16402;DHT22;8310;44.626;11.176;2022-10-16T00:33:41;20.20;55.70
16402;DHT22;8310;44.626;11.176;2022-10-16T00:36:11;20.20;55.80
16402;DHT22;8310;44.626;11.176;2022-10-16T00:38:39;20.20;55.90
16402;DHT22;8310;44.626;11.176;2022-10-16T00:41:09;20.20;56.00
16402;DHT22;8310;44.626;11.176;2022-10-16T00:43:40;20.20;56.10
16402;DHT22;8310;44.626;11.176;2022-10-16T00:46:21;20.20;56.10
16402;DHT22;8310;44.626;11.176;2022-10-16T00:48:52;20.30;56.20
16402;DHT22;8310;44.626;11.176;2022-10-16T00:51:25;20.30;56.20
16402;DHT22;8310;44.626;11.176;2022-10-16T00:53:52;20.30;56.20
16402;DHT22;8310;44.626;11.176;2022-10-16T00:56:20;20.30;56.20
16402;DHT22;8310;44.626;11.176;2022-10-16T00:58:48;20.30;56.20
16402;DHT22;8310;44.626;11.176;2022-10-16T01:01:17;20.30;56.30
16402;DHT22;8310;44.626;11.176;2022-10-16T01:03:45;20.30;56.30
16402;DHT22;8310;44.626;11.176;2022-10-16T01:06:21;20.40;56.30
16402;DHT22;8310;44.626;11.176;2022-10-16T01:09:04;20.40;56.30
16402;DHT22;8310;44.626;11.176;2022-10-16T01:11:38;20.30;56.20
16402;DHT22;8310;44.626;11.176;2022-10-16T01:14:26;20.30;56.20
16402;DHT22;8310;44.626;11.176;2022-10-16T01:17:00;20.30;56.20
16402;DHT22;8310;44.626;11.176;2022-10-16T01:19:43;20.20;56.50
16402;DHT22;8310;44.626;11.176;2022-10-16T01:22:13;20.20;56.20
16402;DHT22;8310;44.626;11.176;2022-10-16T01:24:43;20.20;56.30
16402;DHT22;8310;44.626;11.176;2022-10-16T01:27:15;20.20;56.30
16402;DHT22;8310;44.626;11.176;2022-10-16T01:29:51;20.20;56.40
16402;DHT22;8310;44.626;11.176;2022-10-16T01:32:25;20.20;56.30
16402;DHT22;8310;44.626;11.176;2022-10-16T01:34:59;20.20;56.30
16402;DHT22;8310;44.626;11.176;2022-10-16T01:37:32;20.20;56.30
16402;DHT22;8310;44.626;11.176;2022-10-16T01:40:07;20.20;56.40
16402;DHT22;8310;44.626;11.176;2022-10-16T01:42:41;20.20;56.30
16402;DHT22;8310;44.626;11.176;2022-10-16T01:45:12;20.10;56.30
16402;DHT22;8310;44.626;11.176;2022-10-16T01:47:41;20.10;56.30
16402;DHT22;8310;44.626;11.176;2022-10-16T01:50:09;20.10;56.30
16402;DHT22;8310;44.626;11.176;2022-10-16T01:52:40;20.00;56.30
16402;DHT22;8310;44.626;11.176;2022-10-16T01:55:10;20.00;56.30
16402;DHT22;8310;44.626;11.176;2022-10-16T01:57:44;20.00;56.30
16402;DHT22;8310;44.626;11.176;2022-10-16T02:00:14;20.00;56.30
16402;DHT22;8310;44.626;11.176;2022-10-16T02:02:45;19.90;56.30
16402;DHT22;8310;44.626;11.176;2022-10-16T02:05:18;19.90;56.30
16402;DHT22;8310;44.626;11.176;2022-10-16T02:07:47;19.90;56.30
16402;DHT22;8310;44.626;11.176;2022-10-16T02:10:16;19.90;56.40
16402;DHT22;8310;44.626;11.176;2022-10-16T02:12:49;19.90;56.40
16402;DHT22;8310;44.626;11.176;2022-10-16T02:15:18;19.80;56.30
16402;DHT22;8310;44.626;11.176;2022-10-16T02:17:46;19.80;56.30
16402;DHT22;8310;44.626;11.176;2022-10-16T02:20:14;19.80;56.30
16402;DHT22;8310;44.626;11.176;2022-10-16T02:22:45;19.70;56.30
16402;DHT22;8310;44.626;11.176;2022-10-16T02:25:18;19.70;56.30
16402;DHT22;8310;44.626;11.176;2022-10-16T02:27:55;19.70;56.30
16402;DHT22;8310;44.626;11.176;2022-10-16T02:30:25;19.70;56.30
16402;DHT22;8310;44.626;11.176;2022-10-16T02:32:56;19.70;56.30
16402;DHT22;8310;44.626;11.176;2022-10-16T02:35:25;19.60;56.30
16402;DHT22;8310;44.626;11.176;2022-10-16T02:37:54;19.60;56.30
16402;DHT22;8310;44.626;11.176;2022-10-16T02:40:22;19.60;56.30
16402;DHT22;8310;44.626;11.176;2022-10-16T02:42:53;19.60;56.30
16402;DHT22;8310;44.626;11.176;2022-10-16T02:45:23;19.60;56.30
16402;DHT22;8310;44.626;11.176;2022-10-16T02:47:51;19.50;56.10
16402;DHT22;8310;44.626;11.176;2022-10-16T02:50:19;19.50;56.10
16402;DHT22;8310;44.626;11.176;2022-10-16T02:52:46;19.50;56.10
16402;DHT22;8310;44.626;11.176;2022-10-16T02:55:14;19.40;56.10
16402;DHT22;8310;44.626;11.176;2022-10-16T02:57:41;19.40;56.10
16402;DHT22;8310;44.626;11.176;2022-10-16T03:00:14;19.40;56.00
16402;DHT22;8310;44.626;11.176;2022-10-16T03:02:41;19.30;56.00
16402;DHT22;8310;44.626;11.176;2022-10-16T03:05:09;19.20;56.00
16402;DHT22;8310;44.626;11.176;2022-10-16T03:07:37;19.20;56.00
16402;DHT22;8310;44.626;11.176;2022-10-16T03:10:05;19.10;56.00
16402;DHT22;8310;44.626;11.176;2022-10-16T03:12:33;19.10;56.10
16402;DHT22;8310;44.626;11.176;2022-10-16T03:15:00;19.10;56.20
16402;DHT22;8310;44.626;11.176;2022-10-16T03:17:29;19.10;56.30
16402;DHT22;8310;44.626;11.176;2022-10-16T03:19:57;19.10;56.30
16402;DHT22;8310;44.626;11.176;2022-10-16T03:22:24;19.10;56.30
16402;DHT22;8310;44.626;11.176;2022-10-16T03:24:52;19.10;56.30
16402;DHT22;8310;44.626;11.176;2022-10-16T03:27:20;19.10;56.30
16402;DHT22;8310;44.626;11.176;2022-10-16T03:29:48;19.10;56.30
16402;DHT22;8310;44.626;11.176;2022-10-16T03:32:15;19.00;56.30
16402;DHT22;8310;44.626;11.176;2022-10-16T03:34:45;19.00;56.20
16402;DHT22;8310;44.626;11.176;2022-10-16T03:37:13;19.00;56.30
16402;DHT22;8310;44.626;11.176;2022-10-16T03:39:41;18.90;56.20
16402;DHT22;8310;44.626;11.176;2022-10-16T03:42:08;18.90;56.20
16402;DHT22;8310;44.626;11.176;2022-10-16T03:44:36;18.90;56.30
16402;DHT22;8310;44.626;11.176;2022-10-16T03:47:04;18.90;56.30
16402;DHT22;8310;44.626;11.176;2022-10-16T03:49:35;18.90;56.40
16402;DHT22;8310;44.626;11.176;2022-10-16T03:52:04;18.90;56.40
16402;DHT22;8310;44.626;11.176;2022-10-16T03:54:32;18.90;56.40
16402;DHT22;8310;44.626;11.176;2022-10-16T03:56:59;18.90;56.50
16402;DHT22;8310;44.626;11.176;2022-10-16T03:59:27;18.90;56.50
16402;DHT22;8310;44.626;11.176;2022-10-16T04:01:55;18.90;56.50
16402;DHT22;8310;44.626;11.176;2022-10-16T04:04:22;18.90;56.50
16402;DHT22;8310;44.626;11.176;2022-10-16T04:06:51;18.80;56.50
16402;DHT22;8310;44.626;11.176;2022-10-16T04:09:21;18.80;56.50
16402;DHT22;8310;44.626;11.176;2022-10-16T04:11:49;18.80;56.50
16402;DHT22;8310;44.626;11.176;2022-10-16T04:14:17;18.80;56.50
16402;DHT22;8310;44.626;11.176;2022-10-16T04:16:45;18.70;56.50
16402;DHT22;8310;44.626;11.176;2022-10-16T04:19:12;18.70;57.10
16402;DHT22;8310;44.626;11.176;2022-10-16T04:21:40;18.70;56.60
16402;DHT22;8310;44.626;11.176;2022-10-16T04:24:08;18.60;56.50
16402;DHT22;8310;44.626;11.176;2022-10-16T04:26:38;18.60;56.50
16402;DHT22;8310;44.626;11.176;2022-10-16T04:29:06;18.60;56.50
16402;DHT22;8310;44.626;11.176;2022-10-16T04:31:33;18.60;56.50
16402;DHT22;8310;44.626;11.176;2022-10-16T04:34:01;18.60;56.50
16402;DHT22;8310;44.626;11.176;2022-10-16T04:36:29;18.50;56.50
16402;DHT22;8310;44.626;11.176;2022-10-16T04:38:56;18.50;56.60
16402;DHT22;8310;44.626;11.176;2022-10-16T04:41:23;18.50;56.60
16402;DHT22;8310;44.626;11.176;2022-10-16T04:43:52;18.50;56.60
16402;DHT22;8310;44.626;11.176;2022-10-16T04:46:20;18.40;56.60
16402;DHT22;8310;44.626;11.176;2022-10-16T04:48:48;18.40;56.60
16402;DHT22;8310;44.626;11.176;2022-10-16T04:51:15;18.40;56.50
16402;DHT22;8310;44.626;11.176;2022-10-16T04:53:43;18.30;56.30
16402;DHT22;8310;44.626;11.176;2022-10-16T04:56:10;18.20;56.30
16402;DHT22;8310;44.626;11.176;2022-10-16T04:58:37;18.20;56.30
16402;DHT22;8310;44.626;11.176;2022-10-16T05:01:06;18.10;56.30
16402;DHT22;8310;44.626;11.176;2022-10-16T05:03:33;18.10;56.50
16402;DHT22;8310;44.626;11.176;2022-10-16T05:06:01;18.10;56.50
16402;DHT22;8310;44.626;11.176;2022-10-16T05:08:29;18.10;56.60
16402;DHT22;8310;44.626;11.176;2022-10-16T05:10:56;18.10;56.60
16402;DHT22;8310;44.626;11.176;2022-10-16T05:13:24;18.10;56.50
16402;DHT22;8310;44.626;11.176;2022-10-16T05:15:52;18.10;56.50
16402;DHT22;8310;44.626;11.176;2022-10-16T05:18:21;18.00;56.50
16402;DHT22;8310;44.626;11.176;2022-10-16T05:20:48;18.00;56.50
16402;DHT22;8310;44.626;11.176;2022-10-16T05:23:16;18.00;56.50
16402;DHT22;8310;44.626;11.176;2022-10-16T05:25:43;18.00;56.50
16402;DHT22;8310;44.626;11.176;2022-10-16T05:28:18;18.00;56.60
16402;DHT22;8310;44.626;11.176;2022-10-16T05:30:46;18.00;56.50
16402;DHT22;8310;44.626;11.176;2022-10-16T05:33:13;18.00;56.50
16402;DHT22;8310;44.626;11.176;2022-10-16T05:35:42;17.90;56.50
16402;DHT22;8310;44.626;11.176;2022-10-16T05:38:10;17.90;56.50
16402;DHT22;8310;44.626;11.176;2022-10-16T05:40:38;17.90;56.50
16402;DHT22;8310;44.626;11.176;2022-10-16T05:43:05;17.80;56.50
16402;DHT22;8310;44.626;11.176;2022-10-16T05:45:33;17.80;56.50
16402;DHT22;8310;44.626;11.176;2022-10-16T05:48:00;17.70;56.50
16402;DHT22;8310;44.626;11.176;2022-10-16T05:50:28;17.70;56.70
16402;DHT22;8310;44.626;11.176;2022-10-16T05:52:57;17.70;56.80
16402;DHT22;8310;44.626;11.176;2022-10-16T05:55:25;17.70;56.90
16402;DHT22;8310;44.626;11.176;2022-10-16T05:57:54;17.70;56.90
16402;DHT22;8310;44.626;11.176;2022-10-16T06:00:21;17.70;57.10
16402;DHT22;8310;44.626;11.176;2022-10-16T06:02:49;17.70;57.00
16402;DHT22;8310;44.626;11.176;2022-10-16T06:05:17;17.80;57.00
16402;DHT22;8310;44.626;11.176;2022-10-16T06:07:45;17.70;57.10
16402;DHT22;8310;44.626;11.176;2022-10-16T06:10:14;17.80;57.20
16402;DHT22;8310;44.626;11.176;2022-10-16T06:12:41;17.80;57.20
16402;DHT22;8310;44.626;11.176;2022-10-16T06:15:09;17.80;57.30
16402;DHT22;8310;44.626;11.176;2022-10-16T06:17:37;17.80;57.40
16402;DHT22;8310;44.626;11.176;2022-10-16T06:20:05;17.80;57.40
16402;DHT22;8310;44.626;11.176;2022-10-16T06:22:33;17.90;57.50
16402;DHT22;8310;44.626;11.176;2022-10-16T06:25:00;17.90;57.50
16402;DHT22;8310;44.626;11.176;2022-10-16T06:27:29;17.90;57.60
16402;DHT22;8310;44.626;11.176;2022-10-16T06:29:57;18.00;57.80
16402;DHT22;8310;44.626;11.176;2022-10-16T06:32:26;18.00;58.00
16402;DHT22;8310;44.626;11.176;2022-10-16T06:34:54;18.10;58.00
16402;DHT22;8310;44.626;11.176;2022-10-16T06:37:21;18.20;58.20
16402;DHT22;8310;44.626;11.176;2022-10-16T06:39:49;18.30;58.90
16402;DHT22;8310;44.626;11.176;2022-10-16T06:42:17;18.60;60.50
16402;DHT22;8310;44.626;11.176;2022-10-16T06:44:47;19.10;62.10
16402;DHT22;8310;44.626;11.176;2022-10-16T06:47:14;19.70;64.00
16402;DHT22;8310;44.626;11.176;2022-10-16T06:49:42;20.40;65.20
16402;DHT22;8310;44.626;11.176;2022-10-16T06:52:09;21.00;66.00
16402;DHT22;8310;44.626;11.176;2022-10-16T06:54:37;21.60;66.70
16402;DHT22;8310;44.626;11.176;2022-10-16T06:57:04;22.10;66.80
16402;DHT22;8310;44.626;11.176;2022-10-16T06:59:32;22.50;66.60
16402;DHT22;8310;44.626;11.176;2022-10-16T07:02:01;22.80;66.40
16402;DHT22;8310;44.626;11.176;2022-10-16T07:04:29;22.90;66.40
16402;DHT22;8310;44.626;11.176;2022-10-16T07:06:56;23.20;66.80
16402;DHT22;8310;44.626;11.176;2022-10-16T07:09:24;23.40;66.80
16402;DHT22;8310;44.626;11.176;2022-10-16T07:11:51;23.70;67.30
16402;DHT22;8310;44.626;11.176;2022-10-16T07:14:20;23.90;67.70
16402;DHT22;8310;44.626;11.176;2022-10-16T07:16:48;24.10;67.20
16402;DHT22;8310;44.626;11.176;2022-10-16T07:19:17;24.20;67.20
16402;DHT22;8310;44.626;11.176;2022-10-16T07:21:44;24.40;67.40
16402;DHT22;8310;44.626;11.176;2022-10-16T07:24:13;24.60;67.30
16402;DHT22;8310;44.626;11.176;2022-10-16T07:26:42;24.70;66.80
16402;DHT22;8310;44.626;11.176;2022-10-16T07:29:13;24.70;65.80
16402;DHT22;8310;44.626;11.176;2022-10-16T07:31:41;24.70;64.30
16402;DHT22;8310;44.626;11.176;2022-10-16T07:34:10;24.60;62.60
16402;DHT22;8310;44.626;11.176;2022-10-16T07:36:40;24.30;60.90
16402;DHT22;8310;44.626;11.176;2022-10-16T07:39:08;24.00;59.80
16402;DHT22;8310;44.626;11.176;2022-10-16T07:41:35;23.70;59.10
16402;DHT22;8310;44.626;11.176;2022-10-16T07:44:04;23.40;58.90
16402;DHT22;8310;44.626;11.176;2022-10-16T07:46:32;23.00;58.70
16402;DHT22;8310;44.626;11.176;2022-10-16T07:49:03;22.80;58.80
16402;DHT22;8310;44.626;11.176;2022-10-16T07:51:32;22.60;58.80
16402;DHT22;8310;44.626;11.176;2022-10-16T07:54:01;22.50;59.30
16402;DHT22;8310;44.626;11.176;2022-10-16T07:56:30;22.40;58.80
16402;DHT22;8310;44.626;11.176;2022-10-16T07:58:58;22.30;58.80
16402;DHT22;8310;44.626;11.176;2022-10-16T08:01:27;22.40;59.10
16402;DHT22;8310;44.626;11.176;2022-10-16T08:03:54;22.40;59.20
16402;DHT22;8310;44.626;11.176;2022-10-16T08:06:22;22.50;59.10
16402;DHT22;8310;44.626;11.176;2022-10-16T08:08:50;22.60;59.10
16402;DHT22;8310;44.626;11.176;2022-10-16T08:11:19;22.60;59.00
16402;DHT22;8310;44.626;11.176;2022-10-16T08:13:46;22.70;59.20
16402;DHT22;8310;44.626;11.176;2022-10-16T08:16:14;22.80;59.20
16402;DHT22;8310;44.626;11.176;2022-10-16T08:18:42;22.90;59.20
16402;DHT22;8310;44.626;11.176;2022-10-16T08:21:14;22.90;59.30
16402;DHT22;8310;44.626;11.176;2022-10-16T08:23:41;23.10;59.30
16402;DHT22;8310;44.626;11.176;2022-10-16T08:26:10;23.10;59.10
16402;DHT22;8310;44.626;11.176;2022-10-16T08:28:39;23.20;59.20
16402;DHT22;8310;44.626;11.176;2022-10-16T08:31:08;23.30;59.30
16402;DHT22;8310;44.626;11.176;2022-10-16T08:33:36;23.40;59.40
16402;DHT22;8310;44.626;11.176;2022-10-16T08:36:05;23.50;59.50
16402;DHT22;8310;44.626;11.176;2022-10-16T08:38:32;23.60;59.40
16402;DHT22;8310;44.626;11.176;2022-10-16T08:41:15;23.70;59.40
16402;DHT22;8310;44.626;11.176;2022-10-16T08:44:02;23.80;59.40
16402;DHT22;8310;44.626;11.176;2022-10-16T08:46:41;23.90;59.50
16402;DHT22;8310;44.626;11.176;2022-10-16T08:49:12;24.00;59.50
16402;DHT22;8310;44.626;11.176;2022-10-16T08:51:40;24.20;59.50
16402;DHT22;8310;44.626;11.176;2022-10-16T08:54:21;24.30;59.50
16402;DHT22;8310;44.626;11.176;2022-10-16T08:56:50;24.30;59.50
16402;DHT22;8310;44.626;11.176;2022-10-16T08:59:19;24.40;59.50
16402;DHT22;8310;44.626;11.176;2022-10-16T09:01:50;24.50;59.50
16402;DHT22;8310;44.626;11.176;2022-10-16T09:07:23;24.80;59.60
16402;DHT22;8310;44.626;11.176;2022-10-16T09:10:02;24.90;59.60
16402;DHT22;8310;44.626;11.176;2022-10-16T09:12:35;25.10;60.30
16402;DHT22;8310;44.626;11.176;2022-10-16T09:15:17;25.10;59.50
16402;DHT22;8310;44.626;11.176;2022-10-16T09:17:55;25.20;59.50
16402;DHT22;8310;44.626;11.176;2022-10-16T09:20:30;25.20;59.50
16402;DHT22;8310;44.626;11.176;2022-10-16T09:23:15;25.30;59.40
16402;DHT22;8310;44.626;11.176;2022-10-16T09:25:45;25.40;59.40
16402;DHT22;8310;44.626;11.176;2022-10-16T09:28:15;25.40;59.30
16402;DHT22;8310;44.626;11.176;2022-10-16T09:30:45;25.40;59.20
16402;DHT22;8310;44.626;11.176;2022-10-16T09:33:15;25.50;59.20
16402;DHT22;8310;44.626;11.176;2022-10-16T09:35:44;25.50;59.20
16402;DHT22;8310;44.626;11.176;2022-10-16T09:38:22;25.50;59.10
16402;DHT22;8310;44.626;11.176;2022-10-16T09:40:50;25.60;59.20
16402;DHT22;8310;44.626;11.176;2022-10-16T09:43:22;25.60;59.30
16402;DHT22;8310;44.626;11.176;2022-10-16T09:45:57;25.70;59.50
16402;DHT22;8310;44.626;11.176;2022-10-16T09:48:27;25.90;59.50
16402;DHT22;8310;44.626;11.176;2022-10-16T09:50:56;26.00;59.40
16402;DHT22;8310;44.626;11.176;2022-10-16T09:53:26;26.00;59.30
16402;DHT22;8310;44.626;11.176;2022-10-16T09:56:05;26.00;59.20
16402;DHT22;8310;44.626;11.176;2022-10-16T09:58:33;26.00;59.20
16402;DHT22;8310;44.626;11.176;2022-10-16T10:01:02;26.10;59.80
16402;DHT22;8310;44.626;11.176;2022-10-16T10:03:35;26.20;59.40
16402;DHT22;8310;44.626;11.176;2022-10-16T10:06:14;26.20;59.50
16402;DHT22;8310;44.626;11.176;2022-10-16T10:09:04;26.30;59.60
16402;DHT22;8310;44.626;11.176;2022-10-16T10:11:43;26.50;59.70
16402;DHT22;8310;44.626;11.176;2022-10-16T10:14:21;26.60;59.80
16402;DHT22;8310;44.626;11.176;2022-10-16T10:16:51;26.70;59.80
16402;DHT22;8310;44.626;11.176;2022-10-16T10:19:20;26.80;59.60
16402;DHT22;8310;44.626;11.176;2022-10-16T10:21:49;26.90;59.50
16402;DHT22;8310;44.626;11.176;2022-10-16T10:24:19;26.90;59.40
16402;DHT22;8310;44.626;11.176;2022-10-16T10:26:54;26.90;59.40
16402;DHT22;8310;44.626;11.176;2022-10-16T10:29:35;26.90;59.30
16402;DHT22;8310;44.626;11.176;2022-10-16T10:32:17;26.90;59.40
16402;DHT22;8310;44.626;11.176;2022-10-16T10:35:02;27.00;59.40
16402;DHT22;8310;44.626;11.176;2022-10-16T10:40:44;27.00;59.20
16402;DHT22;8310;44.626;11.176;2022-10-16T10:43:27;27.10;59.20
16402;DHT22;8310;44.626;11.176;2022-10-16T10:45:59;27.10;59.20
16402;DHT22;8310;44.626;11.176;2022-10-16T10:49:02;27.20;59.40
16402;DHT22;8310;44.626;11.176;2022-10-16T10:51:42;27.40;59.50
16402;DHT22;8310;44.626;11.176;2022-10-16T10:54:16;27.50;59.50
16402;DHT22;8310;44.626;11.176;2022-10-16T10:56:51;27.50;59.40
16402;DHT22;8310;44.626;11.176;2022-10-16T11:02:21;27.70;59.50
16402;DHT22;8310;44.626;11.176;2022-10-16T11:05:26;27.80;59.60
16402;DHT22;8310;44.626;11.176;2022-10-16T11:07:58;28.00;59.60
16402;DHT22;8310;44.626;11.176;2022-10-16T11:10:30;28.10;59.60
16402;DHT22;8310;44.626;11.176;2022-10-16T11:13:09;28.20;59.60
16402;DHT22;8310;44.626;11.176;2022-10-16T11:15:39;28.30;59.50
16402;DHT22;8310;44.626;11.176;2022-10-16T11:18:13;28.40;59.50
16402;DHT22;8310;44.626;11.176;2022-10-16T11:20:49;28.50;59.30
16402;DHT22;8310;44.626;11.176;2022-10-16T11:23:22;28.50;59.20
16402;DHT22;8310;44.626;11.176;2022-10-16T11:25:51;28.50;59.30
16402;DHT22;8310;44.626;11.176;2022-10-16T11:28:20;28.60;59.40
16402;DHT22;8310;44.626;11.176;2022-10-16T11:30:52;28.70;59.40
16402;DHT22;8310;44.626;11.176;2022-10-16T11:33:27;28.80;59.40
16402;DHT22;8310;44.626;11.176;2022-10-16T11:36:05;28.90;59.40
16402;DHT22;8310;44.626;11.176;2022-10-16T11:38:41;29.00;59.40
16402;DHT22;8310;44.626;11.176;2022-10-16T11:41:18;29.10;59.30
16402;DHT22;8310;44.626;11.176;2022-10-16T11:43:56;29.10;59.00
16402;DHT22;8310;44.626;11.176;2022-10-16T11:46:26;29.10;58.50
16402;DHT22;8310;44.626;11.176;2022-10-16T11:49:00;29.00;58.60
16402;DHT22;8310;44.626;11.176;2022-10-16T11:51:38;28.90;58.40
16402;DHT22;8310;44.626;11.176;2022-10-16T11:54:18;28.90;58.20
16402;DHT22;8310;44.626;11.176;2022-10-16T11:56:50;28.80;58.10
16402;DHT22;8310;44.626;11.176;2022-10-16T11:59:23;28.70;58.20
16402;DHT22;8310;44.626;11.176;2022-10-16T12:02:19;28.70;58.60
16402;DHT22;8310;44.626;11.176;2022-10-16T12:04:52;28.80;58.90
16402;DHT22;8310;44.626;11.176;2022-10-16T12:07:31;29.00;59.20
16402;DHT22;8310;44.626;11.176;2022-10-16T12:10:10;29.10;59.20
16402;DHT22;8310;44.626;11.176;2022-10-16T12:12:39;29.30;59.20
16402;DHT22;8310;44.626;11.176;2022-10-16T12:15:21;29.50;59.30
16402;DHT22;8310;44.626;11.176;2022-10-16T12:17:49;29.60;59.70
16402;DHT22;8310;44.626;11.176;2022-10-16T12:20:24;29.70;59.20
16402;DHT22;8310;44.626;11.176;2022-10-16T12:22:55;29.80;59.20
16402;DHT22;8310;44.626;11.176;2022-10-16T12:25:26;29.90;59.10
16402;DHT22;8310;44.626;11.176;2022-10-16T12:27:59;29.90;58.90
16402;DHT22;8310;44.626;11.176;2022-10-16T12:30:29;29.90;58.90
16402;DHT22;8310;44.626;11.176;2022-10-16T12:32:59;30.00;58.90
16402;DHT22;8310;44.626;11.176;2022-10-16T12:35:30;30.00;58.90
16402;DHT22;8310;44.626;11.176;2022-10-16T12:38:08;30.00;58.90
16402;DHT22;8310;44.626;11.176;2022-10-16T12:40:42;30.10;58.80
16402;DHT22;8310;44.626;11.176;2022-10-16T12:43:26;30.10;58.70
16402;DHT22;8310;44.626;11.176;2022-10-16T12:46:01;30.20;58.70
16402;DHT22;8310;44.626;11.176;2022-10-16T12:48:29;30.10;58.50
16402;DHT22;8310;44.626;11.176;2022-10-16T12:50:57;30.10;58.30
16402;DHT22;8310;44.626;11.176;2022-10-16T12:53:38;30.10;58.30
16402;DHT22;8310;44.626;11.176;2022-10-16T12:56:14;30.00;58.20
16402;DHT22;8310;44.626;11.176;2022-10-16T12:59:04;30.00;58.20
16402;DHT22;8310;44.626;11.176;2022-10-16T13:01:42;30.00;58.20
16402;DHT22;8310;44.626;11.176;2022-10-16T13:04:27;30.00;58.10
16402;DHT22;8310;44.626;11.176;2022-10-16T13:07:09;29.90;57.80
16402;DHT22;8310;44.626;11.176;2022-10-16T13:09:49;29.80;57.80
16402;DHT22;8310;44.626;11.176;2022-10-16T13:13:00;29.70;57.90
16402;DHT22;8310;44.626;11.176;2022-10-16T13:15:56;29.70;57.90
16402;DHT22;8310;44.626;11.176;2022-10-16T13:18:32;29.80;58.10
16402;DHT22;8310;44.626;11.176;2022-10-16T13:21:12;29.80;58.10
16402;DHT22;8310;44.626;11.176;2022-10-16T13:23:49;29.80;58.00
16402;DHT22;8310;44.626;11.176;2022-10-16T13:26:28;29.90;58.00
16402;DHT22;8310;44.626;11.176;2022-10-16T13:28:59;29.90;57.80
16402;DHT22;8310;44.626;11.176;2022-10-16T13:31:28;29.80;57.70
16402;DHT22;8310;44.626;11.176;2022-10-16T13:33:57;29.80;57.60
16402;DHT22;8310;44.626;11.176;2022-10-16T13:36:25;29.80;57.60
16402;DHT22;8310;44.626;11.176;2022-10-16T13:39:09;29.70;57.50
16402;DHT22;8310;44.626;11.176;2022-10-16T13:41:40;29.60;57.40
16402;DHT22;8310;44.626;11.176;2022-10-16T13:44:13;29.60;57.40
16402;DHT22;8310;44.626;11.176;2022-10-16T13:46:43;29.60;57.30
16402;DHT22;8310;44.626;11.176;2022-10-16T13:49:14;29.50;57.20
16402;DHT22;8310;44.626;11.176;2022-10-16T13:51:54;29.40;57.20
16402;DHT22;8310;44.626;11.176;2022-10-16T13:54:22;29.40;57.00
16402;DHT22;8310;44.626;11.176;2022-10-16T13:56:51;29.30;56.90
16402;DHT22;8310;44.626;11.176;2022-10-16T13:59:23;29.20;56.90
16402;DHT22;8310;44.626;11.176;2022-10-16T14:01:53;29.10;56.90
16402;DHT22;8310;44.626;11.176;2022-10-16T14:04:21;29.10;57.00
16402;DHT22;8310;44.626;11.176;2022-10-16T14:06:50;29.10;57.00
16402;DHT22;8310;44.626;11.176;2022-10-16T14:09:24;29.00;56.90
16402;DHT22;8310;44.626;11.176;2022-10-16T14:11:55;29.00;56.90
16402;DHT22;8310;44.626;11.176;2022-10-16T14:14:23;29.00;56.80
16402;DHT22;8310;44.626;11.176;2022-10-16T14:16:52;28.90;57.30
16402;DHT22;8310;44.626;11.176;2022-10-16T14:19:22;28.90;56.70
16402;DHT22;8310;44.626;11.176;2022-10-16T14:21:51;28.90;56.70
16402;DHT22;8310;44.626;11.176;2022-10-16T14:24:26;28.80;56.60
16402;DHT22;8310;44.626;11.176;2022-10-16T14:26:56;28.80;56.60
16402;DHT22;8310;44.626;11.176;2022-10-16T14:29:25;28.70;56.60
16402;DHT22;8310;44.626;11.176;2022-10-16T14:31:57;28.70;56.50
16402;DHT22;8310;44.626;11.176;2022-10-16T14:34:26;28.60;56.50
16402;DHT22;8310;44.626;11.176;2022-10-16T14:36:55;28.60;56.40
16402;DHT22;8310;44.626;11.176;2022-10-16T14:39:25;28.50;56.30
16402;DHT22;8310;44.626;11.176;2022-10-16T14:41:57;28.50;56.30
16402;DHT22;8310;44.626;11.176;2022-10-16T14:44:29;28.40;56.30
16402;DHT22;8310;44.626;11.176;2022-10-16T14:47:06;28.40;56.30
16402;DHT22;8310;44.626;11.176;2022-10-16T14:49:33;28.30;56.30
16402;DHT22;8310;44.626;11.176;2022-10-16T14:52:01;28.30;56.30
16402;DHT22;8310;44.626;11.176;2022-10-16T14:54:31;28.20;56.20
16402;DHT22;8310;44.626;11.176;2022-10-16T14:57:00;28.20;56.20
16402;DHT22;8310;44.626;11.176;2022-10-16T14:59:32;28.20;56.20
16402;DHT22;8310;44.626;11.176;2022-10-16T15:02:06;28.10;56.10
16402;DHT22;8310;44.626;11.176;2022-10-16T15:04:40;28.10;56.10
16402;DHT22;8310;44.626;11.176;2022-10-16T15:07:08;28.00;56.00
16402;DHT22;8310;44.626;11.176;2022-10-16T15:09:36;28.00;56.00
16402;DHT22;8310;44.626;11.176;2022-10-16T15:12:05;28.00;56.10
16402;DHT22;8310;44.626;11.176;2022-10-16T15:14:33;27.90;56.00
16402;DHT22;8310;44.626;11.176;2022-10-16T15:17:00;27.90;56.00
16402;DHT22;8310;44.626;11.176;2022-10-16T15:19:28;27.90;56.00
16402;DHT22;8310;44.626;11.176;2022-10-16T15:21:55;27.80;55.90
16402;DHT22;8310;44.626;11.176;2022-10-16T15:24:23;27.80;55.90
16402;DHT22;8310;44.626;11.176;2022-10-16T15:26:51;27.80;55.90
16402;DHT22;8310;44.626;11.176;2022-10-16T15:29:20;27.70;55.80
16402;DHT22;8310;44.626;11.176;2022-10-16T15:31:48;27.70;55.80
16402;DHT22;8310;44.626;11.176;2022-10-16T15:34:16;27.70;55.80
16402;DHT22;8310;44.626;11.176;2022-10-16T15:36:45;27.60;55.80
16402;DHT22;8310;44.626;11.176;2022-10-16T15:39:14;27.60;55.80
16402;DHT22;8310;44.626;11.176;2022-10-16T15:41:42;27.60;55.90
16402;DHT22;8310;44.626;11.176;2022-10-16T15:44:09;27.60;55.80
16402;DHT22;8310;44.626;11.176;2022-10-16T15:46:39;27.50;55.70
16402;DHT22;8310;44.626;11.176;2022-10-16T15:49:06;27.50;55.70
16402;DHT22;8310;44.626;11.176;2022-10-16T15:51:38;27.40;55.60
16402;DHT22;8310;44.626;11.176;2022-10-16T15:54:06;27.40;55.60
16402;DHT22;8310;44.626;11.176;2022-10-16T15:56:33;27.40;55.60
16402;DHT22;8310;44.626;11.176;2022-10-16T15:59:03;27.30;55.50
16402;DHT22;8310;44.626;11.176;2022-10-16T16:01:32;27.30;55.60
16402;DHT22;8310;44.626;11.176;2022-10-16T16:04:02;27.20;55.50